Time;durP1;ratioP1;P1;durP2;ratioP2;P2;SDS_P1;SDS_P2;PMS_P1;PMS_P2;Temp;Humidity;BMP_temperature;BMP_pressure;BME280_temperature;BME280_humidity;BME280_pressure;Samples;Min_cycle;Max_cycle;Signal;HPM_P1;HPM_P2
2022/01/16 00:00:21;;;;;;;169.80;62.38;;;;;;;;;;5049071;28;20033;-59
2022/01/16 00:05:24;;;;;;;171.43;56.63;;;;;;;;;;5051418;28;20033;-59
2022/01/16 00:07:49;;;;;;;143.38;56.03;;;;;;;;;;5049865;28;20516;-59
2022/01/16 00:10:17;;;;;;;147.65;61.35;;;;;;;;;;5048788;28;20017;-59
2022/01/16 00:12:47;;;;;;;126.80;57.53;;;;;;;;;;5051378;28;20040;-59
2022/01/16 00:15:12;;;;;;;122.10;57.67;;;;;;;;;;5049046;28;20468;-59
2022/01/16 00:17:48;;;;;;;152.30;52.38;;;;;;;;;;5049731;28;20010;-59
2022/01/16 00:20:13;;;;;;;123.22;50.60;;;;;;;;;;5051662;28;20044;-59
2022/01/16 00:22:41;;;;;;;106.30;48.45;;;;;;;;;;5051940;28;20047;-59
2022/01/16 00:25:06;;;;;;;105.43;50.75;;;;;;;;;;5052694;28;20028;-59
2022/01/16 00:27:31;;;;;;;123.05;51.42;;;;;;;;;;5050682;28;20033;-59
2022/01/16 00:29:56;;;;;;;115.43;51.08;;;;;;;;;;5050670;28;20047;-59
2022/01/16 00:32:22;;;;;;;132.43;57.00;;;;;;;;;;5052432;28;20020;-59
2022/01/16 00:34:47;;;;;;;127.43;53.92;;;;;;;;;;5045736;28;20417;-59
2022/01/16 00:37:12;;;;;;;126.00;56.20;;;;;;;;;;5052173;28;20464;-59
2022/01/16 00:39:37;;;;;;;115.00;55.83;;;;;;;;;;5050510;28;20459;-59
2022/01/16 00:42:02;;;;;;;106.20;57.17;;;;;;;;;;5053107;28;20016;-59
2022/01/16 00:44:27;;;;;;;125.85;53.97;;;;;;;;;;5050665;28;20509;-60
2022/01/16 00:46:53;;;;;;;117.72;54.05;;;;;;;;;;5051479;28;20060;-60
2022/01/16 00:49:18;;;;;;;120.57;51.65;;;;;;;;;;5049882;28;20066;-60
2022/01/16 00:51:43;;;;;;;132.10;59.30;;;;;;;;;;5049132;28;20396;-60
2022/01/16 00:54:09;;;;;;;140.43;56.78;;;;;;;;;;5050428;28;20041;-60
2022/01/16 00:56:34;;;;;;;153.02;56.90;;;;;;;;;;5051781;28;20021;-60
2022/01/16 00:58:59;;;;;;;117.38;56.58;;;;;;;;;;5050540;28;20403;-60
2022/01/16 01:01:24;;;;;;;128.98;55.13;;;;;;;;;;5051100;28;20035;-60
2022/01/16 01:03:49;;;;;;;159.38;60.25;;;;;;;;;;5050446;28;20119;-60
2022/01/16 01:06:15;;;;;;;146.35;59.92;;;;;;;;;;5051640;28;20090;-60
2022/01/16 01:08:40;;;;;;;142.63;59.03;;;;;;;;;;5049028;28;20032;-60
2022/01/16 01:11:11;;;;;;;153.65;59.92;;;;;;;;;;5048325;28;20457;-61
2022/01/16 01:13:56;;;;;;;154.02;71.03;;;;;;;;;;5050070;28;20052;-61
2022/01/16 01:16:21;;;;;;;140.20;59.30;;;;;;;;;;5050124;28;20464;-61
2022/01/16 01:18:46;;;;;;;155.32;63.40;;;;;;;;;;5051627;28;20017;-61
2022/01/16 01:21:26;;;;;;;138.48;62.25;;;;;;;;;;5048873;28;20040;-61
2022/01/16 01:23:51;;;;;;;146.70;65.90;;;;;;;;;;5046802;28;20037;-61
2022/01/16 01:26:16;;;;;;;152.55;64.10;;;;;;;;;;5051501;28;20020;-61
2022/01/16 01:28:41;;;;;;;159.82;74.78;;;;;;;;;;5050134;28;20021;-61
2022/01/16 01:31:07;;;;;;;170.70;69.70;;;;;;;;;;5047860;28;20045;-60
2022/01/16 01:33:32;;;;;;;158.43;69.93;;;;;;;;;;5047169;28;20025;-60
2022/01/16 01:35:57;;;;;;;181.10;70.47;;;;;;;;;;5051018;28;20021;-60
2022/01/16 01:38:22;;;;;;;150.45;62.38;;;;;;;;;;5050789;28;20424;-60
2022/01/16 01:40:49;;;;;;;164.18;68.93;;;;;;;;;;5044832;28;20036;-60
2022/01/16 01:51:08;;;;;;;146.60;70.20;;;;;;;;;;5051265;28;20039;-61
2022/01/16 01:53:34;;;;;;;174.20;73.43;;;;;;;;;;5048100;28;20116;-61
2022/01/16 01:55:59;;;;;;;157.60;71.60;;;;;;;;;;5049677;28;20092;-61
2022/01/16 01:58:25;;;;;;;159.23;66.30;;;;;;;;;;5052166;28;20020;-61
2022/01/16 02:00:50;;;;;;;178.33;76.23;;;;;;;;;;5046314;28;20044;-60
2022/01/16 02:03:29;;;;;;;151.65;75.90;;;;;;;;;;5051677;28;20980;-60
2022/01/16 02:05:55;;;;;;;159.10;72.07;;;;;;;;;;5047613;28;20123;-60
2022/01/16 02:08:20;;;;;;;161.25;72.97;;;;;;;;;;5048415;28;20112;-60
2022/01/16 02:10:45;;;;;;;148.48;70.88;;;;;;;;;;5048510;28;20051;-60
2022/01/16 02:13:19;;;;;;;151.00;67.97;;;;;;;;;;5052152;28;20462;-60
2022/01/16 02:31:37;;;;;;;154.05;67.20;;;;;;;;;;5048138;28;20087;-61
2022/01/16 02:36:50;;;;;;;181.43;74.82;;;;;;;;;;5055835;28;20030;-60
2022/01/16 02:39:16;;;;;;;162.05;71.10;;;;;;;;;;5066094;28;20041;-61
2022/01/16 02:41:42;;;;;;;152.48;70.03;;;;;;;;;;5050089;28;20499;-61
2022/01/16 02:44:30;;;;;;;163.77;68.70;;;;;;;;;;5048904;28;20124;-61
2022/01/16 02:46:56;;;;;;;140.25;65.28;;;;;;;;;;5050212;28;20465;-61
2022/01/16 02:49:22;;;;;;;154.88;71.50;;;;;;;;;;5063936;28;20048;-61
2022/01/16 02:51:47;;;;;;;151.90;71.80;;;;;;;;;;5050140;28;20104;-61
2022/01/16 02:54:13;;;;;;;147.52;71.82;;;;;;;;;;5058194;28;20047;-61
2022/01/16 02:56:38;;;;;;;162.55;73.45;;;;;;;;;;5066560;28;20462;-61
2022/01/16 02:59:04;;;;;;;162.63;70.65;;;;;;;;;;5067499;28;20057;-61
2022/01/16 03:01:29;;;;;;;167.77;77.82;;;;;;;;;;5050648;28;20021;-61
2022/01/16 03:03:54;;;;;;;145.77;69.28;;;;;;;;;;5048644;28;20378;-61
2022/01/16 03:06:19;;;;;;;161.73;75.03;;;;;;;;;;5051113;28;20024;-61
2022/01/16 03:08:44;;;;;;;152.35;74.55;;;;;;;;;;5050916;28;20086;-61
2022/01/16 03:11:23;;;;;;;158.57;75.60;;;;;;;;;;5051796;28;20307;-60
2022/01/16 03:13:49;;;;;;;166.10;73.70;;;;;;;;;;5048440;28;20794;-60
2022/01/16 03:16:20;;;;;;;160.20;76.00;;;;;;;;;;5065274;28;20021;-60
2022/01/16 03:24:15;;;;;;;153.52;73.93;;;;;;;;;;5068345;28;20090;-60
2022/01/16 03:26:40;;;;;;;181.52;81.55;;;;;;;;;;5069779;28;20016;-60
2022/01/16 03:29:05;;;;;;;181.35;71.35;;;;;;;;;;5067347;28;20035;-60
2022/01/16 03:31:30;;;;;;;177.38;71.78;;;;;;;;;;5049960;28;20064;-60
2022/01/16 03:33:55;;;;;;;170.95;79.55;;;;;;;;;;5051968;28;20043;-60
2022/01/16 03:36:22;;;;;;;194.50;80.00;;;;;;;;;;5057282;28;20048;-59
2022/01/16 03:38:47;;;;;;;187.93;74.03;;;;;;;;;;5071411;28;20031;-59
2022/01/16 03:41:12;;;;;;;183.95;73.82;;;;;;;;;;5071428;28;20470;-61
2022/01/16 03:43:37;;;;;;;169.52;75.57;;;;;;;;;;5072030;28;20021;-61
2022/01/16 03:46:03;;;;;;;176.65;75.18;;;;;;;;;;5061279;28;20802;-61
2022/01/16 03:48:28;;;;;;;182.70;76.15;;;;;;;;;;5053881;28;20021;-61
2022/01/16 03:50:53;;;;;;;170.70;73.43;;;;;;;;;;5066772;28;20040;-61
2022/01/16 03:53:19;;;;;;;179.97;82.80;;;;;;;;;;5068064;28;20017;-61
2022/01/16 03:55:44;;;;;;;180.50;78.03;;;;;;;;;;5051905;28;20451;-61
2022/01/16 03:58:09;;;;;;;178.32;74.63;;;;;;;;;;5062528;28;20469;-61
2022/01/16 04:00:34;;;;;;;208.48;84.90;;;;;;;;;;5059323;28;20033;-60
2022/01/16 04:02:59;;;;;;;216.95;77.82;;;;;;;;;;5053646;28;20025;-60
2022/01/16 04:05:25;;;;;;;217.85;75.20;;;;;;;;;;5053646;28;20605;-60
2022/01/16 04:07:50;;;;;;;194.48;76.25;;;;;;;;;;5073186;28;20028;-60
2022/01/16 04:10:15;;;;;;;221.03;74.63;;;;;;;;;;5062284;28;20041;-60
2022/01/16 04:12:40;;;;;;;231.63;80.95;;;;;;;;;;5052901;28;20996;-60
2022/01/16 04:17:37;;;;;;;261.88;74.40;;;;;;;;;;5073402;28;20028;-59
2022/01/16 04:20:03;;;;;;;279.85;82.88;;;;;;;;;;5063783;28;20033;-59
2022/01/16 04:22:28;;;;;;;280.60;78.97;;;;;;;;;;5052976;28;20017;-59
2022/01/16 04:24:53;;;;;;;242.00;76.63;;;;;;;;;;5051455;28;20036;-59
2022/01/16 04:27:18;;;;;;;295.05;84.25;;;;;;;;;;5070946;28;20690;-59
2022/01/16 04:29:43;;;;;;;319.17;80.68;;;;;;;;;;5066313;28;20036;-59
2022/01/16 04:32:09;;;;;;;274.90;78.90;;;;;;;;;;5054153;28;20096;-59
2022/01/16 04:34:34;;;;;;;338.35;86.85;;;;;;;;;;5070815;28;20047;-59
2022/01/16 04:36:59;;;;;;;273.95;79.93;;;;;;;;;;5072948;28;20024;-59
2022/01/16 04:39:31;;;;;;;240.60;79.50;;;;;;;;;;5070044;28;20041;-59
2022/01/16 04:44:40;;;;;;;224.10;77.10;;;;;;;;;;5066908;28;20050;-60
2022/01/16 04:47:06;;;;;;;211.73;80.55;;;;;;;;;;5052574;28;20033;-60
2022/01/16 04:49:31;;;;;;;221.23;81.72;;;;;;;;;;5052001;28;20037;-60
2022/01/16 04:51:56;;;;;;;241.55;76.78;;;;;;;;;;5052356;28;20108;-60
2022/01/16 04:54:22;;;;;;;205.98;75.07;;;;;;;;;;5061399;28;20036;-60
2022/01/16 04:56:47;;;;;;;222.32;79.53;;;;;;;;;;5052029;28;20029;-60
2022/01/16 04:59:12;;;;;;;254.67;81.53;;;;;;;;;;5050315;28;20033;-60
2022/01/16 05:01:37;;;;;;;216.02;77.90;;;;;;;;;;5054237;28;20795;-60
2022/01/16 05:04:02;;;;;;;248.63;82.07;;;;;;;;;;5047082;28;20420;-60
2022/01/16 05:06:28;;;;;;;222.02;75.43;;;;;;;;;;5054689;28;20443;-60
2022/01/16 05:08:53;;;;;;;266.33;83.50;;;;;;;;;;5050212;28;20440;-60
2022/01/16 05:11:24;;;;;;;253.60;83.25;;;;;;;;;;5049695;28;20455;-60
2022/01/16 05:16:37;;;;;;;258.13;78.30;;;;;;;;;;5049668;28;20075;-59
2022/01/16 05:19:03;;;;;;;261.08;78.05;;;;;;;;;;5053033;28;20033;-63
2022/01/16 05:21:29;;;;;;;319.42;84.82;;;;;;;;;;5032190;28;20029;-59
2022/01/16 05:23:54;;;;;;;327.17;83.37;;;;;;;;;;5046828;28;20403;-59
2022/01/16 05:26:24;;;;;;;327.63;81.70;;;;;;;;;;5051451;28;20031;-58
2022/01/16 05:28:49;;;;;;;278.70;81.95;;;;;;;;;;5050345;28;20774;-58
2022/01/16 05:31:14;;;;;;;242.43;78.55;;;;;;;;;;5052849;28;20037;-58
2022/01/16 05:33:40;;;;;;;278.80;79.73;;;;;;;;;;5049737;28;20035;-58
2022/01/16 05:36:05;;;;;;;241.17;79.60;;;;;;;;;;5051935;28;20591;-59
2022/01/16 05:38:30;;;;;;;248.70;81.80;;;;;;;;;;5064101;28;20928;-59
2022/01/16 05:40:55;;;;;;;269.20;86.63;;;;;;;;;;5053381;28;20452;-59
2022/01/16 05:43:20;;;;;;;225.55;74.95;;;;;;;;;;5065678;28;20995;-58
2022/01/16 05:45:45;;;;;;;208.67;70.70;;;;;;;;;;5069845;28;20040;-59
2022/01/16 05:48:10;;;;;;;227.05;80.15;;;;;;;;;;5069276;28;20529;-59
2022/01/16 05:50:36;;;;;;;278.73;85.68;;;;;;;;;;5056297;28;20400;-59
2022/01/16 05:53:01;;;;;;;266.43;82.17;;;;;;;;;;5059419;28;20059;-59
2022/01/16 05:55:30;;;;;;;234.63;77.38;;;;;;;;;;5068839;28;21024;-59
2022/01/16 05:57:55;;;;;;;;;;;;;;;;;;5071825;28;20047;-59
2022/01/16 06:00:21;;;;;;;208.50;71.50;;;;;;;;;;5058509;28;19974;-59
2022/01/16 06:02:46;;;;;;;219.15;77.00;;;;;;;;;;5051137;28;20037;-59
2022/01/16 06:05:12;;;;;;;193.23;70.97;;;;;;;;;;5052433;28;20476;-60
2022/01/16 06:07:40;;;;;;;205.73;75.00;;;;;;;;;;5070681;28;20945;-60
2022/01/16 06:10:05;;;;;;;200.37;76.97;;;;;;;;;;5063046;28;20036;-60
2022/01/16 06:12:30;;;;;;;230.43;76.57;;;;;;;;;;5070619;28;20016;-59
2022/01/16 06:14:55;;;;;;;217.60;73.93;;;;;;;;;;5068697;28;20638;-59
2022/01/16 06:17:20;;;;;;;240.25;87.38;;;;;;;;;;5051248;28;20036;-59
2022/01/16 06:19:46;;;;;;;217.98;81.40;;;;;;;;;;5057837;28;20149;-58
2022/01/16 06:22:11;;;;;;;198.98;75.47;;;;;;;;;;5070650;28;20021;-58
2022/01/16 06:24:36;;;;;;;209.07;84.28;;;;;;;;;;5069216;28;20037;-59
2022/01/16 06:27:01;;;;;;;216.98;74.25;;;;;;;;;;5069903;28;20052;-58
2022/01/16 06:29:26;;;;;;;191.82;77.63;;;;;;;;;;5067447;28;20029;-58
2022/01/16 06:31:51;;;;;;;222.18;78.32;;;;;;;;;;5070114;28;20441;-58
2022/01/16 06:34:17;;;;;;;187.30;75.67;;;;;;;;;;5056809;28;20116;-60
2022/01/16 06:36:42;;;;;;;198.80;76.97;;;;;;;;;;5051469;28;20523;-59
2022/01/16 06:39:09;;;;;;;192.65;76.10;;;;;;;;;;5057178;28;20041;-58
2022/01/16 06:41:35;;;;;;;189.88;76.75;;;;;;;;;;5057098;28;20024;-58
2022/01/16 06:44:01;;;;;;;190.82;77.90;;;;;;;;;;5049813;28;20060;-58
2022/01/16 06:46:26;;;;;;;215.15;82.47;;;;;;;;;;5053044;28;20029;-57
2022/01/16 06:48:51;;;;;;;212.82;86.90;;;;;;;;;;5051801;28;20041;-58
2022/01/16 06:51:20;;;;;;;189.70;81.07;;;;;;;;;;5050390;28;20009;-58
2022/01/16 06:53:48;;;;;;;202.30;86.00;;;;;;;;;;5059022;28;20459;-58
2022/01/16 06:56:15;;;;;;;172.20;74.50;;;;;;;;;;5049930;28;20024;-57
2022/01/16 06:58:40;;;;;;;185.10;79.47;;;;;;;;;;5046803;28;20021;-58
2022/01/16 07:01:06;;;;;;;186.32;76.53;;;;;;;;;;5051406;28;20032;-57
2022/01/16 07:03:31;;;;;;;190.40;78.45;;;;;;;;;;5069847;28;20020;-57
2022/01/16 07:05:57;;;;;;;193.27;77.13;;;;;;;;;;5049914;28;20040;-58
2022/01/16 07:08:25;;;;;;;188.68;79.10;;;;;;;;;;5052177;28;20443;-58
2022/01/16 07:10:50;;;;;;;202.02;79.30;;;;;;;;;;5051821;28;20496;-57
2022/01/16 07:13:16;;;;;;;198.10;78.38;;;;;;;;;;5056886;28;20024;-58
2022/01/16 07:15:41;;;;;;;186.98;77.75;;;;;;;;;;5051989;28;20488;-58
2022/01/16 07:18:06;;;;;;;175.75;73.35;;;;;;;;;;5053283;28;20017;-58
2022/01/16 07:20:32;;;;;;;177.10;80.37;;;;;;;;;;5064423;28;20120;-58
2022/01/16 07:22:57;;;;;;;190.18;81.22;;;;;;;;;;5073714;28;20421;-58
2022/01/16 07:25:22;;;;;;;175.60;74.28;;;;;;;;;;5054350;28;20131;-58
2022/01/16 07:27:47;;;;;;;202.57;80.60;;;;;;;;;;5044757;28;20419;-58
2022/01/16 07:30:12;;;;;;;177.37;82.63;;;;;;;;;;5050041;28;20511;-58
2022/01/16 07:32:38;;;;;;;177.27;74.50;;;;;;;;;;5052160;28;20466;-58
2022/01/16 07:35:04;;;;;;;174.80;76.85;;;;;;;;;;5051885;28;20037;-58
2022/01/16 07:37:29;;;;;;;182.45;78.55;;;;;;;;;;5052843;28;20017;-58
2022/01/16 07:39:54;;;;;;;179.70;79.80;;;;;;;;;;5049652;28;20086;-58
2022/01/16 07:42:19;;;;;;;186.93;79.20;;;;;;;;;;5047507;28;20013;-59
2022/01/16 07:44:45;;;;;;;178.30;80.07;;;;;;;;;;5060942;28;20841;-58
2022/01/16 07:47:10;;;;;;;174.32;79.22;;;;;;;;;;5073165;28;20017;-62
2022/01/16 07:49:35;;;;;;;180.20;84.63;;;;;;;;;;5064536;28;20029;-57
2022/01/16 07:52:00;;;;;;;190.73;85.63;;;;;;;;;;5055827;28;20480;-57
2022/01/16 07:54:25;;;;;;;183.15;88.22;;;;;;;;;;5055931;28;20048;-57
2022/01/16 07:56:50;;;;;;;168.07;79.32;;;;;;;;;;5055772;28;20053;-56
2022/01/16 07:59:16;;;;;;;164.18;81.45;;;;;;;;;;5050264;28;20033;-57
2022/01/16 08:01:41;;;;;;;172.35;84.45;;;;;;;;;;5052246;28;20090;-56
2022/01/16 08:04:07;;;;;;;171.95;80.07;;;;;;;;;;5055131;28;20046;-56
2022/01/16 08:06:32;;;;;;;199.23;83.70;;;;;;;;;;5071161;28;20384;-56
2022/01/16 08:08:57;;;;;;;165.43;82.68;;;;;;;;;;5069921;28;20037;-56
2022/01/16 08:11:22;;;;;;;172.90;85.53;;;;;;;;;;5070474;28;20035;-56
2022/01/16 08:13:47;;;;;;;156.45;81.93;;;;;;;;;;5067725;28;20845;-56
2022/01/16 08:16:14;;;;;;;169.90;88.13;;;;;;;;;;5070008;28;20036;-57
2022/01/16 08:18:39;;;;;;;154.35;80.05;;;;;;;;;;5054991;28;20885;-57
2022/01/16 08:21:04;;;;;;;153.95;79.18;;;;;;;;;;5072711;28;20013;-56
2022/01/16 08:23:29;;;;;;;161.70;76.38;;;;;;;;;;5055664;28;20364;-56
2022/01/16 08:25:54;;;;;;;164.47;83.50;;;;;;;;;;5050436;28;20041;-57
2022/01/16 08:28:20;;;;;;;146.67;77.90;;;;;;;;;;5052137;28;20771;-57
2022/01/16 08:30:45;;;;;;;152.95;80.93;;;;;;;;;;5050554;28;20630;-57
2022/01/16 08:33:10;;;;;;;145.02;81.15;;;;;;;;;;5052232;28;20036;-57
2022/01/16 08:35:35;;;;;;;157.20;85.82;;;;;;;;;;5068393;28;20097;-56
2022/01/16 08:38:00;;;;;;;156.32;81.55;;;;;;;;;;5063154;28;20032;-57
2022/01/16 08:40:26;;;;;;;153.35;84.78;;;;;;;;;;5049118;28;20033;-57
2022/01/16 08:42:51;;;;;;;145.00;82.72;;;;;;;;;;5051116;28;20461;-56
2022/01/16 08:45:16;;;;;;;152.00;83.70;;;;;;;;;;5050055;28;20025;-56
2022/01/16 08:47:41;;;;;;;149.93;86.82;;;;;;;;;;5049863;28;20448;-56
2022/01/16 08:50:07;;;;;;;133.23;76.60;;;;;;;;;;5050132;28;20031;-56
2022/01/16 08:52:32;;;;;;;142.30;80.70;;;;;;;;;;5055126;28;20997;-56
2022/01/16 08:54:58;;;;;;;150.90;79.53;;;;;;;;;;5042862;28;20077;-57
2022/01/16 08:57:23;;;;;;;146.30;81.30;;;;;;;;;;5049903;28;20073;-57
2022/01/16 08:59:48;;;;;;;147.45;82.47;;;;;;;;;;5068944;28;20492;-57
2022/01/16 09:02:13;;;;;;;147.80;81.72;;;;;;;;;;5051838;28;20376;-57
2022/01/16 09:04:39;;;;;;;135.40;81.97;;;;;;;;;;5049148;28;20033;-57
2022/01/16 09:07:04;;;;;;;152.93;82.22;;;;;;;;;;5049805;28;20059;-57
2022/01/16 09:09:30;;;;;;;143.43;78.50;;;;;;;;;;5048656;28;20087;-56
2022/01/16 09:11:56;;;;;;;123.38;74.60;;;;;;;;;;5046909;28;20023;-56
2022/01/16 09:14:21;;;;;;;121.03;77.90;;;;;;;;;;5050486;28;20131;-57
2022/01/16 09:16:46;;;;;;;118.97;74.70;;;;;;;;;;5055035;28;20500;-56
2022/01/16 09:19:11;;;;;;;121.60;72.63;;;;;;;;;;5047689;28;20483;-57
2022/01/16 09:21:36;;;;;;;117.57;71.93;;;;;;;;;;5048361;28;21204;-56
2022/01/16 09:24:02;;;;;;;121.20;76.68;;;;;;;;;;5047200;28;20459;-56
2022/01/16 09:26:27;;;;;;;120.20;70.60;;;;;;;;;;5049421;28;20536;-56
2022/01/16 09:28:52;;;;;;;109.75;66.45;;;;;;;;;;5051438;28;20090;-57
2022/01/16 09:31:17;;;;;;;100.32;69.50;;;;;;;;;;5053618;28;20095;-56
2022/01/16 09:33:42;;;;;;;105.37;68.00;;;;;;;;;;5063134;28;20503;-56
2022/01/16 09:36:09;;;;;;;97.60;68.85;;;;;;;;;;5071264;28;20407;-56
2022/01/16 09:38:34;;;;;;;105.80;65.03;;;;;;;;;;5057671;28;20012;-56
2022/01/16 09:41:00;;;;;;;93.10;62.58;;;;;;;;;;5068339;28;20020;-56
2022/01/16 09:43:25;;;;;;;93.30;63.00;;;;;;;;;;5051303;28;20047;-57
2022/01/16 09:45:52;;;;;;;88.00;59.40;;;;;;;;;;5049388;28;20597;-57
2022/01/16 09:48:17;;;;;;;96.43;64.88;;;;;;;;;;5053692;28;20485;-56
2022/01/16 09:50:42;;;;;;;85.15;61.72;;;;;;;;;;5068182;28;20440;-56
2022/01/16 09:53:07;;;;;;;81.85;56.85;;;;;;;;;;5070485;28;20485;-56
2022/01/16 09:55:32;;;;;;;90.33;60.50;;;;;;;;;;5067947;28;20499;-56
2022/01/16 09:57:59;;;;;;;77.40;53.23;;;;;;;;;;5068878;28;20024;-56
2022/01/16 10:00:25;;;;;;;77.40;53.28;;;;;;;;;;5068593;28;20446;-56
2022/01/16 10:02:50;;;;;;;78.40;54.78;;;;;;;;;;5055908;28;20021;-56
2022/01/16 10:05:31;;;;;;;80.72;56.22;;;;;;;;;;5052329;28;20090;-56
2022/01/16 10:08:00;;;;;;;79.25;52.90;;;;;;;;;;5050135;28;20087;-56
2022/01/16 10:10:30;;;;;;;78.97;52.50;;;;;;;;;;5068270;28;20036;-56
2022/01/16 10:13:03;;;;;;;66.82;46.25;;;;;;;;;;5066333;28;20096;-56
2022/01/16 10:15:29;;;;;;;78.35;54.78;;;;;;;;;;5048355;28;20037;-56
2022/01/16 10:17:56;;;;;;;68.20;50.85;;;;;;;;;;5042417;28;20028;-56
2022/01/16 10:20:22;;;;;;;76.18;50.97;;;;;;;;;;5047693;28;20056;-56
2022/01/16 10:22:48;;;;;;;65.38;45.95;;;;;;;;;;5049437;28;20009;-56
2022/01/16 10:25:15;;;;;;;64.47;44.65;;;;;;;;;;5047548;28;20052;-56
2022/01/16 10:27:41;;;;;;;71.10;46.92;;;;;;;;;;5045891;28;20009;-56
2022/01/16 10:30:07;;;;;;;59.20;45.55;;;;;;;;;;5045505;28;20041;-56
2022/01/16 10:32:33;;;;;;;59.42;41.67;;;;;;;;;;5048594;28;20013;-56
2022/01/16 10:35:08;;;;;;;58.50;44.60;;;;;;;;;;5048156;28;20029;-56
2022/01/16 10:37:34;;;;;;;66.18;44.25;;;;;;;;;;5046339;28;20021;-56
2022/01/16 10:40:19;;;;;;;59.67;42.53;;;;;;;;;;5047780;28;20047;-56
2022/01/16 10:42:57;;;;;;;52.22;39.88;;;;;;;;;;5045551;28;20037;-56
2022/01/16 10:45:27;;;;;;;59.20;44.50;;;;;;;;;;5043264;28;20095;-56
2022/01/16 10:47:57;;;;;;;58.60;43.55;;;;;;;;;;5043083;28;20027;-56
2022/01/16 10:50:25;;;;;;;59.28;39.85;;;;;;;;;;5039666;28;20568;-56
2022/01/16 10:53:04;;;;;;;53.08;38.80;;;;;;;;;;5043251;28;20272;-57
2022/01/16 10:55:35;;;;;;;59.90;42.33;;;;;;;;;;5060418;28;20813;-56
2022/01/16 10:58:01;;;;;;;59.22;43.13;;;;;;;;;;5070436;28;20070;-56
2022/01/16 11:00:26;;;;;;;58.33;40.22;;;;;;;;;;5065996;28;20708;-56
2022/01/16 11:02:52;;;;;;;52.40;36.37;;;;;;;;;;5065184;28;20123;-56
2022/01/16 11:05:18;;;;;;;53.83;39.92;;;;;;;;;;5063794;28;20521;-57
2022/01/16 11:07:43;;;;;;;47.45;35.58;;;;;;;;;;5065800;28;20017;-56
2022/01/16 11:10:29;;;;;;;54.65;36.40;;;;;;;;;;5052582;28;20037;-56
2022/01/16 11:12:55;;;;;;;50.95;38.30;;;;;;;;;;5055825;28;20411;-56
2022/01/16 11:15:21;;;;;;;50.83;40.10;;;;;;;;;;5052326;28;20061;-57
2022/01/16 11:17:46;;;;;;;51.35;36.00;;;;;;;;;;5049736;28;20067;-56
2022/01/16 11:20:12;;;;;;;47.30;37.03;;;;;;;;;;5055775;28;20037;-56
2022/01/16 11:22:58;;;;;;;62.17;38.08;;;;;;;;;;5053239;28;20823;-56
2022/01/16 11:25:31;;;;;;;55.33;36.55;;;;;;;;;;5048688;28;20115;-57
2022/01/16 11:28:08;;;;;;;48.10;35.20;;;;;;;;;;5050851;28;20060;-56
2022/01/16 11:30:34;;;;;;;53.95;39.13;;;;;;;;;;5047303;28;20465;-56
2022/01/16 11:33:00;;;;;;;56.30;39.95;;;;;;;;;;5048865;28;20096;-56
2022/01/16 11:35:26;;;;;;;51.97;34.47;;;;;;;;;;5047307;28;20117;-56
2022/01/16 11:37:52;;;;;;;54.92;37.78;;;;;;;;;;5048563;28;20437;-56
2022/01/16 11:40:29;;;;;;;55.22;38.75;;;;;;;;;;5049443;28;20036;-57
2022/01/16 11:43:10;;;;;;;55.75;37.92;;;;;;;;;;5055994;28;20108;-56
2022/01/16 11:45:51;;;;;;;48.67;34.42;;;;;;;;;;5046717;28;20029;-56
2022/01/16 11:48:33;;;;;;;50.90;36.70;;;;;;;;;;5048759;28;20032;-56
2022/01/16 11:50:58;;;;;;;64.32;39.75;;;;;;;;;;5048093;28;20399;-56
2022/01/16 11:53:42;;;;;;;56.57;39.43;;;;;;;;;;5049676;28;20105;-56
2022/01/16 11:56:27;;;;;;;62.65;37.97;;;;;;;;;;5050712;28;20064;-56
2022/01/16 11:59:13;;;;;;;60.20;38.05;;;;;;;;;;5068976;28;20991;-57
2022/01/16 12:01:42;;;;;;;62.38;38.30;;;;;;;;;;5071736;28;20016;-56
2022/01/16 12:04:27;;;;;;;57.72;38.17;;;;;;;;;;5070523;28;20093;-56
2022/01/16 12:06:52;;;;;;;64.85;39.92;;;;;;;;;;5070806;28;20105;-56
2022/01/16 12:12:23;;;;;;;56.88;38.10;;;;;;;;;;5071862;28;20029;-56
2022/01/16 12:14:50;;;;;;;85.63;43.95;;;;;;;;;;5062700;28;20096;-56
2022/01/16 12:17:25;;;;;;;63.08;41.17;;;;;;;;;;5056573;28;20020;-56
2022/01/16 12:19:51;;;;;;;67.50;42.95;;;;;;;;;;5063918;28;20040;-56
2022/01/16 12:22:17;;;;;;;61.17;45.55;;;;;;;;;;5071191;28;20457;-56
2022/01/16 12:24:48;;;;;;;64.25;40.92;;;;;;;;;;5069833;28;20111;-56
2022/01/16 12:27:23;;;;;;;66.32;42.95;;;;;;;;;;5071638;28;20105;-56
2022/01/16 12:30:07;;;;;;;78.38;45.97;;;;;;;;;;5031404;28;1011384;-55
2022/01/16 12:32:50;;;;;;;72.50;45.13;;;;;;;;;;5064477;28;20029;-56
2022/01/16 12:35:35;;;;;;;77.00;48.03;;;;;;;;;;5050798;28;20048;-56
2022/01/16 12:38:05;;;;;;;72.95;47.58;;;;;;;;;;5050840;28;20670;-56
2022/01/16 12:40:30;;;;;;;84.70;49.35;;;;;;;;;;5058274;28;20398;-56
2022/01/16 12:42:55;;;;;;;81.32;48.33;;;;;;;;;;5051217;28;20150;-56
2022/01/16 12:45:20;;;;;;;68.72;44.30;;;;;;;;;;5050570;28;20048;-56
2022/01/16 12:47:47;;;;;;;87.57;49.40;;;;;;;;;;5053133;28;20021;-57
2022/01/16 12:50:12;;;;;;;82.85;49.58;;;;;;;;;;5049854;28;20924;-56
2022/01/16 12:52:45;;;;;;;81.32;52.25;;;;;;;;;;5051573;28;20025;-56
2022/01/16 12:55:10;;;;;;;99.18;54.28;;;;;;;;;;5050214;28;20076;-56
2022/01/16 12:57:35;;;;;;;79.90;49.45;;;;;;;;;;5051086;28;20190;-56
2022/01/16 13:00:10;;;;;;;70.75;45.55;;;;;;;;;;5051389;28;20041;-57
2022/01/16 13:02:36;;;;;;;86.10;53.58;;;;;;;;;;5059198;28;20024;-56
2022/01/16 13:05:02;;;;;;;82.20;51.42;;;;;;;;;;5056181;28;20392;-56
2022/01/16 13:07:27;;;;;;;87.85;50.05;;;;;;;;;;5053796;28;20464;-56
2022/01/16 13:09:52;;;;;;;81.22;49.28;;;;;;;;;;5049778;28;20040;-56
2022/01/16 13:12:18;;;;;;;84.53;54.65;;;;;;;;;;5067495;28;20058;-56
2022/01/16 13:14:43;;;;;;;97.03;57.00;;;;;;;;;;5052714;28;20492;-56
2022/01/16 13:17:11;;;;;;;108.80;64.05;;;;;;;;;;5070281;28;20447;-56
2022/01/16 13:19:50;;;;;;;90.20;51.78;;;;;;;;;;5056279;28;20067;-56
2022/01/16 13:22:16;;;;;;;95.75;54.15;;;;;;;;;;5051308;28;20028;-56
2022/01/16 13:24:46;;;;;;;92.22;55.70;;;;;;;;;;5050760;28;20465;-56
2022/01/16 13:27:34;;;;;;;93.95;53.63;;;;;;;;;;5050537;28;20416;-56
2022/01/16 13:30:00;;;;;;;87.70;54.65;;;;;;;;;;5055943;28;20037;-56
2022/01/16 13:32:36;;;;;;;91.68;56.17;;;;;;;;;;5058883;28;20463;-56
2022/01/16 13:35:02;;;;;;;96.22;56.47;;;;;;;;;;5053102;28;20048;-57
2022/01/16 13:37:29;;;;;;;103.10;59.88;;;;;;;;;;5050927;28;20024;-56
2022/01/16 13:39:59;;;;;;;95.85;55.33;;;;;;;;;;5064236;28;20038;-56
2022/01/16 13:45:13;;;;;;;101.32;59.53;;;;;;;;;;5046853;28;20500;-56
2022/01/16 13:47:38;;;;;;;101.50;54.88;;;;;;;;;;5052940;28;20040;-56
2022/01/16 13:50:11;;;;;;;96.18;50.90;;;;;;;;;;5052577;28;20033;-56
2022/01/16 13:52:36;;;;;;;101.60;58.95;;;;;;;;;;5050746;28;20493;-56
2022/01/16 13:55:03;;;;;;;105.45;57.95;;;;;;;;;;5050546;28;20135;-56
2022/01/16 13:57:31;;;;;;;81.78;47.58;;;;;;;;;;5051193;28;20495;-56
2022/01/16 13:59:57;;;;;;;;;;;;;;;;;;5060726;28;20064;-56
2022/01/16 14:02:22;;;;;;;110.18;51.88;;;;;;;;;;5070289;28;19962;-56
2022/01/16 14:04:47;;;;;;;106.93;55.13;;;;;;;;;;5054051;28;20060;-56
2022/01/16 14:07:19;;;;;;;89.95;52.03;;;;;;;;;;5050908;28;20472;-57
2022/01/16 14:09:45;;;;;;;112.45;61.30;;;;;;;;;;5049024;28;20036;-56
2022/01/16 14:12:10;;;;;;;108.03;61.58;;;;;;;;;;5059855;28;20436;-56
2022/01/16 14:14:38;;;;;;;108.28;54.33;;;;;;;;;;5066965;28;20047;-56
2022/01/16 14:17:27;;;;;;;104.28;60.00;;;;;;;;;;5052502;28;20443;-56
2022/01/16 14:22:18;;;;;;;97.72;57.92;;;;;;;;;;5052726;28;20044;-56
2022/01/16 14:24:45;;;;;;;104.10;57.65;;;;;;;;;;5045814;28;20087;-57
2022/01/16 14:27:11;;;;;;;114.68;66.13;;;;;;;;;;5049792;28;20060;-56
2022/01/16 14:29:37;;;;;;;118.10;62.25;;;;;;;;;;5047103;28;20119;-57
2022/01/16 14:32:03;;;;;;;118.07;62.47;;;;;;;;;;5057076;28;20041;-56
2022/01/16 14:34:28;;;;;;;113.35;59.67;;;;;;;;;;5047215;28;20459;-56
2022/01/16 14:36:53;;;;;;;128.70;65.80;;;;;;;;;;5050884;28;20027;-56
2022/01/16 14:39:19;;;;;;;125.47;61.45;;;;;;;;;;5048519;28;20029;-57
2022/01/16 14:41:48;;;;;;;126.65;67.78;;;;;;;;;;5048684;28;20029;-56
2022/01/16 14:44:13;;;;;;;123.55;66.18;;;;;;;;;;5063314;28;20033;-56
2022/01/16 14:46:39;;;;;;;117.10;63.33;;;;;;;;;;5055491;28;20040;-56
2022/01/16 14:49:04;;;;;;;114.90;60.03;;;;;;;;;;5047067;28;20056;-56
2022/01/16 14:51:29;;;;;;;117.30;67.50;;;;;;;;;;5056142;28;20044;-56
2022/01/16 14:53:55;;;;;;;113.70;61.65;;;;;;;;;;5048450;28;20463;-57
2022/01/16 14:56:20;;;;;;;113.50;66.07;;;;;;;;;;5050000;28;20025;-56
2022/01/16 14:58:45;;;;;;;116.00;65.10;;;;;;;;;;5047916;28;20519;-56